createdAt,value
2023-01-09T00:01:19.183Z,99415.00
2023-01-09T00:03:45.997Z,99418.03
2023-01-09T00:06:15.330Z,99420.56
2023-01-09T00:08:41.942Z,99407.13
2023-01-09T00:11:10.639Z,99403.72
2023-01-09T00:13:38.279Z,99434.94
2023-01-09T00:16:06.449Z,99429.84
2023-01-09T00:18:33.544Z,99426.44
2023-01-09T00:21:04.531Z,99424.03
2023-01-09T00:23:31.139Z,99424.69
2023-01-09T00:26:05.777Z,99417.88
2023-01-09T00:28:33.128Z,99427.00
2023-01-09T00:31:01.084Z,99437.69
2023-01-09T00:33:36.941Z,99440.91
2023-01-09T00:36:03.560Z,99427.63
2023-01-09T00:38:30.219Z,99440.16
2023-01-09T00:40:57.383Z,99446.56
2023-01-09T00:43:30.408Z,99436.03
2023-01-09T00:45:57.807Z,99433.09
2023-01-09T00:48:26.640Z,99430.72
2023-01-09T00:50:57.709Z,99433.06
2023-01-09T00:53:31.362Z,99414.16
2023-01-09T00:56:01.359Z,99439.94
2023-01-09T00:58:28.301Z,99434.47
2023-01-09T01:00:54.960Z,99446.19
2023-01-09T01:03:21.542Z,99445.63
2023-01-09T01:06:06.432Z,99434.75
2023-01-09T01:08:35.323Z,99440.16
2023-01-09T01:11:10.296Z,99450.16
2023-01-09T01:13:37.809Z,99461.00
2023-01-09T01:16:06.067Z,99462.00
2023-01-09T01:18:32.782Z,99468.91
2023-01-09T01:20:59.386Z,99469.91
2023-01-09T01:23:26.281Z,99476.03
2023-01-09T01:25:52.921Z,99473.63
2023-01-09T01:28:19.553Z,99473.94
2023-01-09T01:30:46.161Z,99474.09
2023-01-09T01:33:15.196Z,99472.38
2023-01-09T01:35:41.721Z,99462.00
2023-01-09T01:38:08.314Z,99455.06
2023-01-09T01:40:34.905Z,99458.09
2023-01-09T01:43:02.631Z,99460.63
2023-01-09T01:45:30.327Z,99459.91
2023-01-09T01:48:09.841Z,99455.16
2023-01-09T01:51:10.358Z,99466.97
2023-01-09T01:53:42.275Z,99459.63
2023-01-09T01:56:27.107Z,99482.69
2023-01-09T01:59:03.460Z,99480.28
2023-01-09T02:01:31.341Z,99477.59
2023-01-09T02:04:00.537Z,99462.78
2023-01-09T02:06:27.817Z,99491.44
2023-01-09T02:08:55.411Z,99481.75
2023-01-09T02:11:22.147Z,99482.75
2023-01-09T02:13:48.983Z,99484.78
2023-01-09T02:16:34.679Z,99477.25
2023-01-09T02:19:19.537Z,99487.78
2023-01-09T02:21:51.974Z,99483.50
2023-01-09T02:24:31.755Z,99483.66
2023-01-09T02:27:04.869Z,99490.19
2023-01-09T02:29:48.140Z,99485.72
2023-01-09T02:32:41.781Z,99497.94
2023-01-09T02:35:23.368Z,99499.13
2023-01-09T02:38:14.025Z,99490.59
2023-01-09T02:40:52.570Z,99485.50
2023-01-09T02:43:19.760Z,99475.56
2023-01-09T02:45:48.628Z,99484.06
2023-01-09T02:48:15.250Z,99491.19
2023-01-09T02:50:55.000Z,99474.56
2023-01-09T02:53:45.843Z,99482.69
2023-01-09T02:56:24.567Z,99482.84
2023-01-09T02:59:28.852Z,99478.56
2023-01-09T03:02:29.629Z,99469.03
2023-01-09T03:05:04.935Z,99473.63
2023-01-09T03:07:53.763Z,99472.09
2023-01-09T03:10:31.949Z,99465.56
2023-01-09T03:13:02.159Z,99470.66
2023-01-09T03:15:34.359Z,99471.66
2023-01-09T03:18:04.305Z,99469.28
2023-01-09T03:20:32.329Z,99471.13
2023-01-09T03:23:02.686Z,99468.56
2023-01-09T03:25:30.294Z,99466.28
2023-01-09T03:27:59.935Z,99480.09
2023-01-09T03:30:30.829Z,99469.00
2023-01-09T03:32:58.031Z,99476.66
2023-01-09T03:35:27.377Z,99473.41
2023-01-09T03:37:54.439Z,99476.97
2023-01-09T03:40:21.301Z,99466.59
2023-01-09T03:42:50.636Z,99469.88
2023-01-09T03:45:19.300Z,99466.59
2023-01-09T03:47:45.843Z,99462.34
2023-01-09T03:50:12.635Z,99469.00
2023-01-09T03:52:41.524Z,99470.31
2023-01-09T03:55:08.496Z,99472.88
2023-01-09T03:57:35.106Z,99478.59
2023-01-09T04:00:01.732Z,99474.88
2023-01-09T04:02:28.387Z,99457.53
2023-01-09T04:04:57.283Z,99453.84
2023-01-09T04:07:23.803Z,99476.56
2023-01-09T04:09:50.397Z,99458.53
2023-01-09T04:12:19.149Z,99441.81
2023-01-09T04:14:50.507Z,99473.31
2023-01-09T04:17:17.045Z,99468.22
2023-01-09T04:19:43.740Z,99461.25
2023-01-09T04:22:10.285Z,99467.06
2023-01-09T04:24:36.834Z,99460.41
2023-01-09T04:27:03.930Z,99475.19
2023-01-09T04:29:30.493Z,99464.38
2023-01-09T04:31:57.034Z,99462.91
2023-01-09T04:34:25.972Z,99469.81
2023-01-09T04:36:53.427Z,99477.72
2023-01-09T04:39:22.549Z,99462.50
2023-01-09T04:41:49.083Z,99461.59
2023-01-09T04:44:19.679Z,99471.03
2023-01-09T04:46:46.903Z,99472.44
2023-01-09T04:49:19.281Z,99471.09
2023-01-09T04:51:48.520Z,99467.41
2023-01-09T04:54:15.375Z,99482.75
2023-01-09T04:56:42.124Z,99475.03
2023-01-09T04:59:13.353Z,99456.22
2023-01-09T05:01:39.995Z,99457.00
2023-01-09T05:04:07.040Z,99471.94
2023-01-09T05:06:41.015Z,99463.81
2023-01-09T05:09:07.635Z,99453.28
2023-01-09T05:11:34.269Z,99445.00
2023-01-09T05:14:00.801Z,99447.72
2023-01-09T05:16:31.327Z,99441.31
2023-01-09T05:18:58.181Z,99439.00
2023-01-09T05:21:24.851Z,99450.44
2023-01-09T05:23:54.055Z,99443.06
2023-01-09T05:26:24.950Z,99458.09
2023-01-09T05:28:52.326Z,99462.88
2023-01-09T05:31:20.007Z,99437.25
2023-01-09T05:33:46.667Z,99448.31
2023-01-09T05:36:15.624Z,99460.09
2023-01-09T05:38:42.241Z,99439.56
2023-01-09T05:41:08.961Z,99449.63
2023-01-09T05:43:37.874Z,99439.41
2023-01-09T05:46:04.747Z,99461.38
2023-01-09T05:48:31.359Z,99448.13
2023-01-09T05:51:00.118Z,99455.47
2023-01-09T05:53:26.651Z,99434.25
2023-01-09T05:55:53.212Z,99443.16
2023-01-09T05:58:22.070Z,99429.94
2023-01-09T06:00:49.502Z,99439.94
2023-01-09T06:03:16.095Z,99445.06
2023-01-09T06:05:44.934Z,99436.94
2023-01-09T06:08:13.696Z,99445.63
2023-01-09T06:10:40.200Z,99433.91
2023-01-09T06:13:06.689Z,99441.41
2023-01-09T06:15:35.854Z,99435.81
2023-01-09T06:18:02.539Z,99424.81
2023-01-09T06:20:29.137Z,99427.53
2023-01-09T06:22:55.703Z,99419.56
2023-01-09T06:25:22.237Z,99425.34
2023-01-09T06:27:49.169Z,99406.47
2023-01-09T06:30:16.582Z,99426.91
2023-01-09T06:32:43.216Z,99428.56
2023-01-09T06:35:10.257Z,99430.44
2023-01-09T06:37:37.682Z,99439.25
2023-01-09T06:40:04.588Z,99429.97
2023-01-09T06:42:31.196Z,99422.47
2023-01-09T06:44:57.749Z,99436.06
2023-01-09T06:47:24.336Z,99424.53
2023-01-09T06:49:50.950Z,99410.31
2023-01-09T06:52:19.887Z,99435.59
2023-01-09T06:54:46.436Z,99429.13
2023-01-09T06:57:16.245Z,99449.66
2023-01-09T06:59:42.837Z,99429.00
2023-01-09T07:02:19.077Z,99429.31
2023-01-09T07:04:45.706Z,99442.94
2023-01-09T07:07:13.827Z,99427.44
2023-01-09T07:09:40.490Z,99432.41
2023-01-09T07:12:07.233Z,99433.41
2023-01-09T07:14:34.222Z,99443.59
2023-01-09T07:17:00.782Z,99438.13
2023-01-09T07:19:27.496Z,99452.22
2023-01-09T07:21:56.423Z,99466.84
2023-01-09T07:24:23.022Z,99455.81
2023-01-09T07:26:51.802Z,99457.84
2023-01-09T07:29:18.343Z,99471.72
2023-01-09T07:31:47.734Z,99458.69
2023-01-09T07:34:14.383Z,99493.97
2023-01-09T07:36:46.453Z,99470.38
2023-01-09T07:39:13.788Z,99488.38
2023-01-09T07:41:40.512Z,99495.97
2023-01-09T07:44:09.569Z,99490.50
2023-01-09T07:46:37.569Z,99498.47
2023-01-09T07:49:06.506Z,99504.63
2023-01-09T07:51:33.243Z,99498.97
2023-01-09T07:53:59.801Z,99505.41
2023-01-09T07:56:26.387Z,99513.69
2023-01-09T07:58:52.962Z,99513.69
2023-01-09T08:01:19.622Z,99521.84
2023-01-09T08:03:46.195Z,99520.66
2023-01-09T08:06:12.860Z,99528.63
2023-01-09T08:08:39.428Z,99532.06
2023-01-09T08:11:06.023Z,99541.56
2023-01-09T08:13:34.845Z,99547.66
2023-01-09T08:16:01.660Z,99549.22
2023-01-09T08:18:28.336Z,99516.72
2023-01-09T08:20:54.872Z,99557.25
2023-01-09T08:23:21.382Z,99570.66
2023-01-09T08:25:47.943Z,99573.53
2023-01-09T08:28:19.241Z,99582.91
2023-01-09T08:30:48.339Z,99588.47
2023-01-09T08:33:15.063Z,99593.59
2023-01-09T08:35:44.300Z,99587.47
2023-01-09T08:38:11.389Z,99605.81
2023-01-09T08:40:38.496Z,99598.34
2023-01-09T08:43:35.031Z,99602.72
2023-01-09T08:46:01.773Z,99618.22
2023-01-09T08:48:28.341Z,99627.38
2023-01-09T08:50:54.954Z,99619.38
2023-01-09T08:53:21.591Z,99614.63
2023-01-09T08:55:48.227Z,99614.63
2023-01-09T08:58:14.845Z,99632.47
2023-01-09T09:00:43.627Z,99628.38
2023-01-09T09:03:12.912Z,99620.38
2023-01-09T09:05:39.507Z,99629.41
2023-01-09T09:08:08.578Z,99644.00
2023-01-09T09:10:35.160Z,99644.16
2023-01-09T09:13:01.767Z,99628.00
2023-01-09T09:15:28.823Z,99640.09
2023-01-09T09:18:02.482Z,99656.75
2023-01-09T09:20:34.950Z,99667.81
2023-01-09T09:23:01.788Z,99669.28
2023-01-09T09:25:28.784Z,99678.66
2023-01-09T09:27:56.472Z,99678.34
2023-01-09T09:30:25.482Z,99688.88
2023-01-09T09:32:54.438Z,99682.06
2023-01-09T09:35:22.596Z,99694.63
2023-01-09T09:38:02.652Z,99707.09
2023-01-09T09:40:56.080Z,99719.66
2023-01-09T09:43:49.743Z,99709.63
2023-01-09T09:46:41.043Z,99728.94
2023-01-09T09:49:19.002Z,99738.50
2023-01-09T09:51:54.733Z,99740.63
2023-01-09T09:54:31.378Z,99737.47
2023-01-09T09:57:04.235Z,99744.28
2023-01-09T09:59:34.557Z,99755.28
2023-01-09T10:02:11.421Z,99755.59
2023-01-09T10:04:44.609Z,99767.69
2023-01-09T10:07:22.099Z,99760.31
2023-01-09T10:09:55.547Z,99788.41
2023-01-09T10:12:22.070Z,99786.84
2023-01-09T10:14:48.699Z,99787.19
2023-01-09T10:17:27.527Z,99805.19
2023-01-09T10:20:25.155Z,99797.94
2023-01-09T10:22:54.698Z,99800.81
2023-01-09T10:25:32.380Z,99778.03
2023-01-09T10:28:11.935Z,99812.06
2023-01-09T10:30:52.366Z,99807.69
2023-01-09T10:33:50.318Z,99813.81
2023-01-09T10:36:25.979Z,99803.34
2023-01-09T10:38:56.363Z,99808.50
2023-01-09T10:41:29.562Z,99814.69
2023-01-09T10:44:16.704Z,99820.13
2023-01-09T10:46:53.325Z,99819.75
2023-01-09T10:49:21.966Z,99830.47
2023-01-09T10:52:01.660Z,99837.56
2023-01-09T10:54:29.544Z,99828.47
2023-01-09T10:57:02.393Z,99838.03
2023-01-09T10:59:30.756Z,99851.16
2023-01-09T11:01:57.674Z,99853.88
2023-01-09T11:04:31.595Z,99859.13
2023-01-09T11:07:15.734Z,99852.53
2023-01-09T11:10:02.329Z,99848.47
2023-01-09T11:12:31.341Z,99858.88
2023-01-09T11:15:16.174Z,99855.00
2023-01-09T11:17:43.737Z,99844.31
2023-01-09T11:20:18.012Z,99858.63
2023-01-09T11:22:52.866Z,99860.50
2023-01-09T11:25:21.009Z,99865.81
2023-01-09T11:28:06.636Z,99862.09
2023-01-09T11:30:37.788Z,99852.22
2023-01-09T11:33:18.684Z,99867.34
2023-01-09T11:36:05.180Z,99869.38
2023-01-09T11:38:45.807Z,99870.25
2023-01-09T11:41:21.233Z,99869.50
2023-01-09T11:43:50.872Z,99875.31
2023-01-09T11:46:44.020Z,99885.34
2023-01-09T11:52:41.651Z,99894.63
2023-01-09T11:55:14.042Z,99895.66
2023-01-09T11:57:40.725Z,99892.50
2023-01-09T12:00:37.884Z,99893.75
2023-01-09T12:03:45.969Z,99897.16
2023-01-09T12:06:21.947Z,99896.84
2023-01-09T12:09:11.437Z,99897.75
2023-01-09T12:11:52.778Z,99895.94
2023-01-09T12:14:41.681Z,99889.81
2023-01-09T12:17:23.041Z,99887.59
2023-01-09T12:19:57.455Z,99894.59
2023-01-09T12:22:32.984Z,99900.56
2023-01-09T12:25:25.342Z,99898.84
2023-01-09T12:28:39.864Z,99894.06
2023-01-09T12:31:15.258Z,99900.03
2023-01-09T12:34:12.331Z,99905.84
2023-01-09T12:37:02.138Z,99901.38
2023-01-09T12:40:00.650Z,99899.16
2023-01-09T12:42:51.065Z,99902.41
2023-01-09T12:45:44.431Z,99909.97
2023-01-09T12:48:41.212Z,99911.31
2023-01-09T12:51:19.956Z,99917.81
2023-01-09T12:54:10.361Z,99921.16
2023-01-09T12:57:00.503Z,99915.06
2023-01-09T12:59:39.556Z,99926.66
2023-01-09T13:02:09.115Z,99930.56
2023-01-09T13:04:44.910Z,99925.25
2023-01-09T13:07:20.461Z,99932.41
2023-01-09T13:09:52.083Z,99951.28
2023-01-09T13:12:24.361Z,99951.16
2023-01-09T13:15:06.123Z,99955.41
2023-01-09T13:18:05.298Z,99966.81
2023-01-09T13:20:49.201Z,99967.16
2023-01-09T13:23:25.641Z,99966.56
2023-01-09T13:25:58.181Z,99962.31
2023-01-09T13:28:40.035Z,99954.31
2023-01-09T13:31:36.279Z,99970.31
2023-01-09T13:34:08.688Z,99956.84
2023-01-09T13:36:48.285Z,99966.69
2023-01-09T13:39:27.051Z,99981.16
2023-01-09T13:42:23.857Z,99987.72
2023-01-09T13:44:54.770Z,99983.06
2023-01-09T13:47:32.087Z,99988.03
2023-01-09T13:50:09.064Z,99989.28
2023-01-09T13:52:39.879Z,100002.97
2023-01-09T13:55:14.910Z,100003.31
2023-01-09T13:58:06.095Z,100031.19
2023-01-09T14:00:35.629Z,100032.72
2023-01-09T14:03:08.579Z,100037.59
2023-01-09T14:05:35.144Z,100035.34
2023-01-09T14:08:06.907Z,100039.06
2023-01-09T14:10:48.138Z,100049.22
2023-01-09T14:13:22.523Z,100054.50
2023-01-09T14:15:51.332Z,100055.03
2023-01-09T14:18:17.896Z,100064.66
2023-01-09T14:20:59.361Z,100067.31
2023-01-09T14:23:50.845Z,100079.78
2023-01-09T14:26:24.646Z,100084.81
2023-01-09T14:29:29.480Z,100104.56
2023-01-09T14:32:26.346Z,100103.69
2023-01-09T14:35:08.099Z,100119.16
2023-01-09T14:37:40.944Z,100126.63
2023-01-09T14:40:15.553Z,100119.25
2023-01-09T14:42:46.643Z,100128.91
2023-01-09T14:45:20.964Z,100134.66
2023-01-09T14:47:53.400Z,100146.69
2023-01-09T14:50:45.617Z,100154.31
2023-01-09T14:53:18.341Z,100152.88
2023-01-09T14:56:06.265Z,100162.91
2023-01-09T14:58:36.761Z,100164.72
2023-01-09T15:01:27.253Z,100182.41
2023-01-09T15:03:59.519Z,100184.44
2023-01-09T15:06:33.536Z,100189.03
2023-01-09T15:09:05.726Z,100191.31
2023-01-09T15:11:34.865Z,100202.44
2023-01-09T15:14:04.389Z,100205.94
2023-01-09T15:16:32.646Z,100213.38
2023-01-09T15:19:03.066Z,100206.97
2023-01-09T15:21:31.738Z,100224.00
2023-01-09T15:24:21.610Z,100225.75
2023-01-09T15:26:59.753Z,100233.19
2023-01-09T15:29:29.065Z,100234.50
2023-01-09T15:32:03.920Z,100245.50
2023-01-09T15:34:30.897Z,100243.97
2023-01-09T15:37:00.905Z,100244.56
2023-01-09T15:39:31.437Z,100262.00
2023-01-09T15:42:18.821Z,100257.44
2023-01-09T15:44:48.822Z,100271.22
2023-01-09T15:47:22.615Z,100270.69
2023-01-09T15:49:50.254Z,100287.25
2023-01-09T15:52:18.390Z,100275.84
2023-01-09T15:54:47.009Z,100278.28
2023-01-09T15:57:25.835Z,100294.44
2023-01-09T15:59:57.542Z,100297.84
2023-01-09T16:02:44.286Z,100304.88
2023-01-09T16:05:16.114Z,100289.00
2023-01-09T16:07:48.255Z,100304.72
2023-01-09T16:10:30.345Z,100313.44
2023-01-09T16:12:57.501Z,100300.16
2023-01-09T16:15:27.379Z,100318.59
2023-01-09T16:18:16.138Z,100326.03
2023-01-09T16:20:44.358Z,100325.84
2023-01-09T16:23:22.879Z,100334.88
2023-01-09T16:25:49.982Z,100342.75
2023-01-09T16:28:26.841Z,100340.88
2023-01-09T16:30:56.634Z,100347.44
2023-01-09T16:33:25.788Z,100353.00
2023-01-09T16:35:53.451Z,100346.72
2023-01-09T16:38:21.223Z,100352.16
2023-01-09T16:41:26.960Z,100373.03
2023-01-09T16:43:56.500Z,100376.59
2023-01-09T16:46:23.203Z,100378.47
2023-01-09T16:48:49.882Z,100381.16
2023-01-09T16:51:21.747Z,100382.16
2023-01-09T16:53:49.365Z,100382.31
2023-01-09T16:56:22.050Z,100391.59
2023-01-09T16:58:48.917Z,100395.72
2023-01-09T17:01:15.969Z,100399.47
2023-01-09T17:03:44.258Z,100405.31
2023-01-09T17:06:30.320Z,100404.16
2023-01-09T17:08:57.689Z,100408.28
2023-01-09T17:11:32.934Z,100414.84
2023-01-09T17:14:03.805Z,100418.25
2023-01-09T17:16:30.603Z,100422.84
2023-01-09T17:18:57.636Z,100425.97
2023-01-09T17:21:29.509Z,100426.72
2023-01-09T17:24:15.164Z,100428.00
2023-01-09T17:27:04.704Z,100454.47
2023-01-09T17:29:34.561Z,100457.44
2023-01-09T17:32:01.601Z,100452.84
2023-01-09T17:34:28.192Z,100461.88
2023-01-09T17:36:57.128Z,100466.09
2023-01-09T17:39:26.865Z,100473.94
2023-01-09T17:41:53.631Z,100477.22
2023-01-09T17:44:20.183Z,100475.50
2023-01-09T17:46:46.801Z,100482.38
2023-01-09T17:49:19.108Z,100482.81
2023-01-09T17:51:45.771Z,100498.81
2023-01-09T17:54:13.052Z,100506.25
2023-01-09T17:56:45.681Z,100512.81
2023-01-09T17:59:13.895Z,100517.25
2023-01-09T18:01:41.125Z,100518.25
2023-01-09T18:04:07.988Z,100525.41
2023-01-09T18:06:36.473Z,100534.25
2023-01-09T18:09:14.078Z,100531.38
2023-01-09T18:11:40.987Z,100538.97
2023-01-09T18:14:08.885Z,100551.13
2023-01-09T18:16:35.578Z,100555.69
2023-01-09T18:19:02.686Z,100562.13
2023-01-09T18:21:30.711Z,100547.34
2023-01-09T18:23:58.178Z,100550.47
2023-01-09T18:26:24.781Z,100571.63
2023-01-09T18:28:56.321Z,100574.75
2023-01-09T18:31:24.649Z,100579.19
2023-01-09T18:33:53.350Z,100591.34
2023-01-09T18:36:21.565Z,100586.59
2023-01-09T18:38:53.324Z,100592.88
2023-01-09T18:41:21.201Z,100601.56
2023-01-09T18:43:55.647Z,100617.56
2023-01-09T18:46:25.146Z,100614.41
2023-01-09T18:48:58.648Z,100621.53
2023-01-09T18:51:26.748Z,100628.69
2023-01-09T18:53:54.947Z,100619.97
2023-01-09T18:56:22.396Z,100640.38
2023-01-09T18:58:49.176Z,100640.31
2023-01-09T19:01:16.062Z,100654.78
2023-01-09T19:03:42.713Z,100662.63
2023-01-09T19:06:09.601Z,100659.06
2023-01-09T19:08:36.230Z,100685.91
2023-01-09T19:11:03.241Z,100672.09
2023-01-09T19:13:35.876Z,100693.78
2023-01-09T19:16:04.135Z,100687.44
2023-01-09T19:18:37.068Z,100676.50
2023-01-09T19:21:11.245Z,100699.63
2023-01-09T19:23:37.926Z,100697.44
2023-01-09T19:26:08.426Z,100698.56
2023-01-09T19:28:36.425Z,100713.94
2023-01-09T19:31:03.056Z,100714.75
2023-01-09T19:33:29.610Z,100726.91
2023-01-09T19:35:56.201Z,100738.22
2023-01-09T19:38:26.838Z,100741.28
2023-01-09T19:40:53.361Z,100762.59
2023-01-09T19:43:26.196Z,100769.63
2023-01-09T19:45:54.388Z,100762.72
2023-01-09T19:48:22.771Z,100760.41
2023-01-09T19:50:49.777Z,100759.53
2023-01-09T19:53:16.346Z,100772.13
2023-01-09T19:55:42.895Z,100791.94
2023-01-09T19:58:09.632Z,100794.19
2023-01-09T20:00:36.769Z,100813.88
2023-01-09T20:03:04.434Z,100805.13
2023-01-09T20:05:30.988Z,100814.22
2023-01-09T20:07:57.704Z,100815.59
2023-01-09T20:10:26.719Z,100831.00
2023-01-09T20:12:53.284Z,100837.16
2023-01-09T20:15:19.860Z,100821.38
2023-01-09T20:17:46.411Z,100847.50
2023-01-09T20:20:13.089Z,100842.78
2023-01-09T20:22:42.017Z,100849.19
2023-01-09T20:25:10.389Z,100852.41
2023-01-09T20:27:37.034Z,100859.56
2023-01-09T20:30:04.021Z,100850.09
2023-01-09T20:32:32.346Z,100855.13
2023-01-09T20:34:59.023Z,100861.31
2023-01-09T20:37:25.981Z,100854.53
2023-01-09T20:39:53.237Z,100869.44
2023-01-09T20:42:19.891Z,100866.13
2023-01-09T20:44:47.037Z,100881.28
2023-01-09T20:47:13.917Z,100881.78
2023-01-09T20:49:40.418Z,100877.97
2023-01-09T20:52:06.916Z,100882.16
2023-01-09T20:54:41.094Z,100887.97
2023-01-09T20:57:09.870Z,100895.72
2023-01-09T20:59:36.615Z,100891.78
2023-01-09T21:02:03.219Z,100891.91
2023-01-09T21:04:31.195Z,100907.06
2023-01-09T21:07:00.125Z,100898.81
2023-01-09T21:09:27.179Z,100915.56
2023-01-09T21:11:53.716Z,100910.63
2023-01-09T21:14:20.313Z,100924.81
2023-01-09T21:16:54.656Z,100927.63
2023-01-09T21:19:24.836Z,100930.59
2023-01-09T21:21:53.228Z,100923.69
2023-01-09T21:24:20.060Z,100929.72
2023-01-09T21:26:46.621Z,100933.16
2023-01-09T21:29:18.973Z,100938.47
2023-01-09T21:31:48.018Z,100951.06
2023-01-09T21:34:17.382Z,100954.72
2023-01-09T21:36:45.179Z,100962.25
2023-01-09T21:39:11.770Z,100969.66
2023-01-09T21:41:57.130Z,100978.75
2023-01-09T21:44:42.114Z,100980.00
2023-01-09T21:47:09.064Z,100977.63
2023-01-09T21:49:40.696Z,100976.63
2023-01-09T21:52:09.930Z,100976.28
2023-01-09T21:54:36.714Z,100981.81
2023-01-09T21:57:04.050Z,100987.13
2023-01-09T21:59:30.694Z,100999.81
2023-01-09T22:01:57.683Z,100989.34
2023-01-09T22:04:28.269Z,100993.41
2023-01-09T22:06:55.596Z,101001.22
2023-01-09T22:09:22.203Z,100995.53
2023-01-09T22:11:48.745Z,101001.69
2023-01-09T22:14:21.594Z,101012.63
2023-01-09T22:16:48.560Z,101024.66
2023-01-09T22:19:18.864Z,101017.19
2023-01-09T22:21:46.121Z,101040.28
2023-01-09T22:24:16.622Z,101040.69
2023-01-09T22:26:43.928Z,101044.03
2023-01-09T22:29:12.734Z,101045.78
2023-01-09T22:31:40.181Z,101054.56
2023-01-09T22:34:12.827Z,101063.69
2023-01-09T22:36:39.406Z,101070.25
2023-01-09T22:39:06.098Z,101079.13
2023-01-09T22:41:32.848Z,101070.69
2023-01-09T22:43:59.617Z,101091.69
2023-01-09T22:46:26.647Z,101096.75
2023-01-09T22:48:53.226Z,101100.72
2023-01-09T22:51:21.291Z,101103.44
2023-01-09T22:53:48.341Z,101106.88
2023-01-09T22:56:17.730Z,101106.16
2023-01-09T22:58:44.451Z,101113.66
2023-01-09T23:01:12.268Z,101121.44
2023-01-09T23:03:39.591Z,101134.97
2023-01-09T23:06:12.493Z,101137.47
2023-01-09T23:08:39.839Z,101137.13
2023-01-09T23:11:09.534Z,101150.56
2023-01-09T23:13:36.648Z,101145.81
2023-01-09T23:16:06.218Z,101162.31
2023-01-09T23:18:33.338Z,101171.28
2023-01-09T23:21:04.781Z,101172.50
2023-01-09T23:23:32.348Z,101180.34
2023-01-09T23:26:02.262Z,101188.47
2023-01-09T23:28:30.473Z,101175.78
2023-01-09T23:30:57.291Z,101199.09
2023-01-09T23:33:26.312Z,101202.22
2023-01-09T23:35:52.878Z,101216.19
2023-01-09T23:38:20.550Z,101210.47
2023-01-09T23:40:55.376Z,101216.41
2023-01-09T23:43:21.949Z,101221.94
2023-01-09T23:45:51.070Z,101224.88
2023-01-09T23:48:18.780Z,101224.97
2023-01-09T23:50:53.959Z,101226.28
2023-01-09T23:53:23.410Z,101216.84
2023-01-09T23:55:55.798Z,101234.72
2023-01-09T23:58:22.541Z,101237.75
